createdAt,value
2019-04-03T00:01:43.274Z,99148.84
2019-04-03T00:04:11.649Z,99140.08
2019-04-03T00:06:40.210Z,99137.50
2019-04-03T00:09:08.658Z,99141.15
2019-04-03T00:11:39.370Z,99140.28
2019-04-03T00:14:07.652Z,99135.91
2019-04-03T00:16:36.015Z,99132.41
2019-04-03T00:19:04.400Z,99131.55
2019-04-03T00:21:32.857Z,99124.26
2019-04-03T00:24:01.240Z,99125.23
2019-04-03T00:26:30.803Z,99117.43
2019-04-03T00:28:59.506Z,99112.09
2019-04-03T00:31:27.888Z,99116.59
2019-04-03T00:33:56.282Z,99113.92
2019-04-03T00:36:24.771Z,99117.56
2019-04-03T00:38:54.303Z,99109.66
2019-04-03T00:41:24.800Z,99102.48
2019-04-03T00:43:54.464Z,99100.78
2019-04-03T00:46:24.383Z,99104.31
2019-04-03T00:48:55.180Z,99099.09
2019-04-03T00:51:23.677Z,99105.26
2019-04-03T00:53:52.067Z,99103.55
2019-04-03T00:56:20.460Z,99098.22
2019-04-03T00:58:48.908Z,99096.52
2019-04-03T01:01:17.303Z,99094.82
2019-04-03T01:03:45.709Z,99095.66
2019-04-03T01:06:14.101Z,99094.82
2019-04-03T01:08:42.636Z,99094.06
2019-04-03T01:11:11.171Z,99098.43
2019-04-03T01:13:39.638Z,99093.95
2019-04-03T01:16:08.036Z,99092.25
2019-04-03T01:18:36.471Z,99090.55
2019-04-03T01:21:06.833Z,99092.36
2019-04-03T01:23:37.021Z,99087.02
2019-04-03T01:26:05.537Z,99087.02
2019-04-03T01:28:34.125Z,99090.55
2019-04-03T01:31:02.603Z,99080.09
2019-04-03T01:33:31.208Z,99076.34
2019-04-03T01:35:59.601Z,99077.31
2019-04-03T01:38:28.021Z,99073.77
2019-04-03T01:40:56.419Z,99071.10
2019-04-03T01:43:24.936Z,99076.45
2019-04-03T01:45:53.319Z,99061.29
2019-04-03T01:48:21.744Z,99071.00
2019-04-03T01:50:50.135Z,99062.23
2019-04-03T01:53:18.719Z,99056.78
2019-04-03T01:55:47.190Z,99059.45
2019-04-03T01:58:15.580Z,99063.86
2019-04-03T02:00:44.053Z,99067.46
2019-04-03T02:03:12.483Z,99060.42
2019-04-03T02:05:43.236Z,99054.22
2019-04-03T02:08:11.197Z,99053.39
2019-04-03T02:10:39.763Z,99064.90
2019-04-03T02:13:08.269Z,99058.83
2019-04-03T02:15:36.796Z,99052.62
2019-04-03T02:18:05.252Z,99054.47
2019-04-03T02:20:33.906Z,99060.74
2019-04-03T02:23:02.330Z,99043.89
2019-04-03T02:25:32.134Z,99044.72
2019-04-03T02:28:01.889Z,99044.72
2019-04-03T02:30:31.011Z,99037.69
2019-04-03T02:32:59.441Z,99030.64
2019-04-03T02:35:28.075Z,99037.79
2019-04-03T02:37:56.562Z,99042.30
2019-04-03T02:40:25.146Z,99038.77
2019-04-03T02:42:53.575Z,99034.28
2019-04-03T02:45:23.962Z,99022.84
2019-04-03T02:47:52.114Z,99017.52
2019-04-03T02:50:26.521Z,99022.02
2019-04-03T02:52:58.272Z,99026.48
2019-04-03T02:55:25.111Z,99026.48
2019-04-03T02:57:53.518Z,99031.83
2019-04-03T03:00:21.908Z,99015.92
2019-04-03T03:02:50.310Z,99023.92
2019-04-03T03:05:18.714Z,99028.41
2019-04-03T03:07:47.312Z,99022.23
2019-04-03T03:10:18.634Z,99021.36
2019-04-03T03:12:45.923Z,99018.69
2019-04-03T03:15:14.600Z,99017.97
2019-04-03T03:17:43.105Z,99019.66
2019-04-03T03:20:11.516Z,99015.30
2019-04-03T03:22:40.238Z,99012.63
2019-04-03T03:25:09.606Z,99016.23
2019-04-03T03:27:40.635Z,99009.09
2019-04-03T03:30:29.960Z,99016.23
2019-04-03T03:32:38.863Z,98993.85
2019-04-03T03:35:14.205Z,99005.70
2019-04-03T03:37:38.206Z,99006.53
2019-04-03T03:40:07.014Z,99007.50
2019-04-03T03:42:35.418Z,99007.50
2019-04-03T03:45:04.263Z,99011.14
2019-04-03T03:47:35.632Z,99014.75
2019-04-03T03:50:04.079Z,99008.58
2019-04-03T03:52:36.180Z,99003.24
2019-04-03T03:55:02.608Z,99007.71
2019-04-03T03:57:31.250Z,99007.71
2019-04-03T03:59:59.593Z,99006.02
2019-04-03T04:02:28.283Z,99000.67
2019-04-03T04:04:56.980Z,99000.67
2019-04-03T04:07:26.003Z,99004.31
2019-04-03T04:09:54.565Z,99004.31
2019-04-03T04:12:23.310Z,98997.25
2019-04-03T04:14:54.921Z,98997.25
2019-04-03T04:17:22.012Z,98993.75
2019-04-03T04:19:50.437Z,99000.89
2019-04-03T04:22:19.241Z,99002.58
2019-04-03T04:24:47.730Z,98998.22
2019-04-03T04:27:16.646Z,98993.85
2019-04-03T04:29:45.170Z,98996.52
2019-04-03T04:32:14.912Z,98993.85
2019-04-03T04:34:44.444Z,98994.83
2019-04-03T04:37:12.839Z,98997.48
2019-04-03T04:39:41.265Z,98993.95
2019-04-03T04:42:09.653Z,98995.76
2019-04-03T04:44:38.883Z,98990.42
2019-04-03T04:47:08.430Z,98985.09
2019-04-03T04:49:36.862Z,98996.63
2019-04-03T04:52:05.254Z,98997.48
2019-04-03T04:54:33.903Z,98992.16
2019-04-03T04:57:02.359Z,98996.52
2019-04-03T04:59:30.769Z,98988.52
2019-04-03T05:01:59.165Z,98984.05
2019-04-03T05:04:27.581Z,98989.24
2019-04-03T05:06:56.046Z,98982.20
2019-04-03T05:09:24.506Z,98984.77
2019-04-03T05:11:52.950Z,98983.80
2019-04-03T05:14:21.465Z,98982.97
2019-04-03T05:16:50.165Z,98978.46
2019-04-03T05:19:19.503Z,98973.02
2019-04-03T05:21:48.403Z,98977.52
2019-04-03T05:24:16.849Z,98978.46
2019-04-03T05:26:45.235Z,98978.46
2019-04-03T05:29:13.625Z,98978.46
2019-04-03T05:31:42.043Z,98984.66
2019-04-03T05:34:12.390Z,98979.33
2019-04-03T05:36:40.539Z,98968.65
2019-04-03T05:39:08.923Z,98971.32
2019-04-03T05:41:37.335Z,98963.31
2019-04-03T05:44:05.764Z,98974.86
2019-04-03T05:46:36.512Z,98972.19
2019-04-03T05:49:04.660Z,98973.98
2019-04-03T05:51:33.083Z,98969.52
2019-04-03T05:54:01.527Z,98976.55
2019-04-03T05:56:29.970Z,98974.72
2019-04-03T05:59:01.033Z,98971.94
2019-04-03T06:01:28.603Z,98960.44
2019-04-03T06:03:56.994Z,98970.14
2019-04-03T06:06:25.464Z,98959.46
2019-04-03T06:08:56.487Z,98961.16
2019-04-03T06:11:25.012Z,98961.16
2019-04-03T06:13:53.406Z,98960.19
2019-04-03T06:16:24.110Z,98959.25
2019-04-03T06:18:52.094Z,98964.59
2019-04-03T06:21:20.429Z,98957.30
2019-04-03T06:23:48.823Z,98952.83
2019-04-03T06:26:17.485Z,98954.53
2019-04-03T06:28:47.669Z,98957.95
2019-04-03T06:31:16.084Z,98964.98
2019-04-03T06:33:44.472Z,98949.81
2019-04-03T06:36:12.944Z,98954.20
2019-04-03T06:38:41.348Z,98951.42
2019-04-03T06:41:09.752Z,98956.63
2019-04-03T06:43:38.135Z,98953.02
2019-04-03T06:46:06.534Z,98945.73
2019-04-03T06:48:36.496Z,98954.39
2019-04-03T06:51:05.128Z,98951.58
2019-04-03T06:53:33.701Z,98953.31
2019-04-03T06:56:02.082Z,98943.36
2019-04-03T06:58:38.210Z,98946.78
2019-04-03T07:01:00.892Z,98950.17
2019-04-03T07:03:29.372Z,98956.27
2019-04-03T07:05:57.882Z,98956.16
2019-04-03T07:08:33.061Z,98958.69
2019-04-03T07:10:56.429Z,98952.41
2019-04-03T07:13:24.829Z,98954.83
2019-04-03T07:15:55.773Z,98946.71
2019-04-03T07:18:23.380Z,98944.69
2019-04-03T07:20:52.610Z,98943.48
2019-04-03T07:23:21.235Z,98937.89
2019-04-03T07:25:49.919Z,98934.17
2019-04-03T07:28:18.334Z,98939.15
2019-04-03T07:30:46.746Z,98938.95
2019-04-03T07:33:15.338Z,98937.04
2019-04-03T07:35:43.838Z,98931.45
2019-04-03T07:38:12.453Z,98938.26
2019-04-03T07:40:40.850Z,98935.36
2019-04-03T07:43:09.349Z,98937.81
2019-04-03T07:45:37.758Z,98941.20
2019-04-03T07:48:06.992Z,98943.66
2019-04-03T07:50:36.706Z,98939.89
2019-04-03T07:53:05.631Z,98932.63
2019-04-03T07:55:35.666Z,98938.58
2019-04-03T07:58:04.053Z,98938.34
2019-04-03T08:00:32.440Z,98941.73
2019-04-03T08:03:00.906Z,98945.16
2019-04-03T08:05:31.026Z,98932.52
2019-04-03T08:08:01.628Z,98941.28
2019-04-03T08:10:30.576Z,98940.19
2019-04-03T08:12:59.873Z,98945.42
2019-04-03T08:15:28.697Z,98954.16
2019-04-03T08:17:57.972Z,98942.27
2019-04-03T08:20:26.488Z,98942.16
2019-04-03T08:22:54.999Z,98940.11
2019-04-03T08:25:23.391Z,98935.48
2019-04-03T08:27:54.537Z,98935.13
2019-04-03T08:30:23.647Z,98942.78
2019-04-03T08:32:52.121Z,98939.88
2019-04-03T08:35:23.352Z,98936.02
2019-04-03T08:37:50.612Z,98931.30
2019-04-03T08:40:20.357Z,98930.92
2019-04-03T08:42:49.941Z,98932.38
2019-04-03T08:45:20.948Z,98925.94
2019-04-03T08:47:48.528Z,98930.70
2019-04-03T08:50:18.290Z,98928.38
2019-04-03T08:52:46.745Z,98929.72
2019-04-03T08:55:18.168Z,98922.05
2019-04-03T08:57:46.990Z,98917.05
2019-04-03T09:00:15.550Z,98912.04
2019-04-03T09:02:45.395Z,98916.80
2019-04-03T09:05:17.320Z,98914.46
2019-04-03T09:07:45.706Z,98898.77
2019-04-03T09:10:16.547Z,98914.20
2019-04-03T09:12:44.944Z,98916.27
2019-04-03T09:15:13.512Z,98904.05
2019-04-03T09:17:41.900Z,98902.69
2019-04-03T09:20:12.614Z,98906.69
2019-04-03T09:22:40.484Z,98906.19
2019-04-03T09:25:08.869Z,98897.62
2019-04-03T09:27:37.959Z,98895.27
2019-04-03T09:30:11.830Z,98891.09
2019-04-03T09:32:40.316Z,98886.05
2019-04-03T09:35:09.266Z,98886.41
2019-04-03T09:37:38.265Z,98886.60
2019-04-03T09:40:07.401Z,98887.91
2019-04-03T09:42:35.792Z,98880.05
2019-04-03T09:45:05.516Z,98887.58
2019-04-03T09:47:34.927Z,98872.66
2019-04-03T09:50:07.625Z,98878.20
2019-04-03T09:52:42.585Z,98864.97
2019-04-03T09:55:06.490Z,98870.63
2019-04-03T09:57:34.902Z,98881.44
2019-04-03T10:00:04.224Z,98866.47
2019-04-03T10:02:32.646Z,98860.56
2019-04-03T10:05:01.084Z,98870.47
2019-04-03T10:07:31.184Z,98861.74
2019-04-03T10:09:59.606Z,98862.73
2019-04-03T10:12:28.050Z,98857.52
2019-04-03T10:14:58.447Z,98860.34
2019-04-03T10:17:26.673Z,98854.16
2019-04-03T10:19:55.143Z,98846.23
2019-04-03T10:22:24.215Z,98852.47
2019-04-03T10:24:53.223Z,98841.85
2019-04-03T10:27:21.653Z,98841.84
2019-04-03T10:29:50.712Z,98839.83
2019-04-03T10:32:19.549Z,98850.43
2019-04-03T10:34:47.981Z,98849.30
2019-04-03T10:37:16.382Z,98848.13
2019-04-03T10:39:44.992Z,98841.42
2019-04-03T10:42:13.509Z,98845.19
2019-04-03T10:44:42.272Z,98838.31
2019-04-03T10:47:10.836Z,98836.23
2019-04-03T10:49:39.309Z,98845.72
2019-04-03T10:52:07.717Z,98831.13
2019-04-03T10:54:38.034Z,98833.17
2019-04-03T10:57:06.379Z,98832.34
2019-04-03T10:59:34.850Z,98823.51
2019-04-03T11:02:03.259Z,98821.34
2019-04-03T11:04:31.934Z,98814.53
2019-04-03T11:07:00.345Z,98813.26
2019-04-03T11:09:28.955Z,98812.75
2019-04-03T11:11:58.289Z,98819.73
2019-04-03T11:14:27.500Z,98814.80
2019-04-03T11:16:55.882Z,98815.58
2019-04-03T11:19:24.354Z,98809.45
2019-04-03T11:21:53.188Z,98805.88
2019-04-03T11:24:22.897Z,98803.55
2019-04-03T11:26:52.452Z,98808.10
2019-04-03T11:29:21.145Z,98809.46
2019-04-03T11:31:49.616Z,98805.11
2019-04-03T11:34:18.570Z,98794.98
2019-04-03T11:36:47.502Z,98788.87
2019-04-03T11:39:16.708Z,98799.97
2019-04-03T11:41:45.682Z,98789.64
2019-04-03T11:44:14.171Z,98791.48
2019-04-03T11:46:42.612Z,98792.03
2019-04-03T11:49:11.009Z,98787.53
2019-04-03T11:51:39.560Z,98786.51
2019-04-03T11:54:08.779Z,98780.92
2019-04-03T11:56:37.601Z,98797.54
2019-04-03T11:59:06.271Z,98781.83
2019-04-03T12:01:35.187Z,98784.98
2019-04-03T12:04:03.790Z,98781.84
2019-04-03T12:06:32.227Z,98772.20
2019-04-03T12:09:01.259Z,98774.27
2019-04-03T12:11:29.848Z,98772.58
2019-04-03T12:13:58.286Z,98777.00
2019-04-03T12:16:26.717Z,98764.58
2019-04-03T12:18:55.163Z,98766.44
2019-04-03T12:21:23.570Z,98766.17
2019-04-03T12:23:51.988Z,98768.66
2019-04-03T12:26:21.284Z,98748.02
2019-04-03T12:28:50.201Z,98747.36
2019-04-03T12:31:19.802Z,98748.81
2019-04-03T12:33:54.919Z,98744.97
2019-04-03T12:36:18.430Z,98741.05
2019-04-03T12:38:46.845Z,98738.48
2019-04-03T12:41:15.582Z,98741.14
2019-04-03T12:43:44.051Z,98738.98
2019-04-03T12:46:12.537Z,98736.18
2019-04-03T12:48:41.115Z,98734.07
2019-04-03T12:51:09.547Z,98743.59
2019-04-03T12:53:37.944Z,98729.92
2019-04-03T12:56:06.595Z,98724.64
2019-04-03T12:58:36.836Z,98728.98
2019-04-03T13:01:05.654Z,98732.17
2019-04-03T13:03:36.431Z,98729.73
2019-04-03T13:06:04.230Z,98723.06
2019-04-03T13:08:32.867Z,98722.94
2019-04-03T13:11:01.633Z,98732.37
2019-04-03T13:13:30.392Z,98719.97
2019-04-03T13:15:58.825Z,98709.86
2019-04-03T13:18:27.282Z,98720.52
2019-04-03T13:20:55.697Z,98704.97
2019-04-03T13:23:24.454Z,98696.04
2019-04-03T13:25:53.899Z,98696.04
2019-04-03T13:28:22.713Z,98676.64
2019-04-03T13:30:51.076Z,98676.64
2019-04-03T13:33:19.528Z,98712.64
2019-04-03T13:35:48.974Z,98713.05
2019-04-03T13:38:18.431Z,98712.61
2019-04-03T13:40:47.142Z,98709.86
2019-04-03T13:43:15.572Z,98707.72
2019-04-03T13:45:44.147Z,98676.38
2019-04-03T13:48:13.364Z,98676.38
2019-04-03T13:50:44.987Z,98664.91
2019-04-03T13:53:12.742Z,98664.91
2019-04-03T13:55:41.159Z,98705.08
2019-04-03T13:58:09.603Z,98696.23
2019-04-03T14:00:38.018Z,98698.06
2019-04-03T14:03:06.948Z,98699.47
2019-04-03T14:05:35.807Z,98689.30
2019-04-03T14:08:06.492Z,98696.89
2019-04-03T14:10:34.460Z,98690.30
2019-04-03T14:13:02.950Z,98681.02
2019-04-03T14:15:31.374Z,98678.64
2019-04-03T14:17:59.784Z,98685.69
2019-04-03T14:20:28.602Z,98676.18
2019-04-03T14:22:57.507Z,98673.72
2019-04-03T14:25:31.371Z,98683.39
2019-04-03T14:27:56.435Z,98676.69
2019-04-03T14:30:24.851Z,98673.59
2019-04-03T14:32:54.665Z,98680.85
2019-04-03T14:35:45.433Z,98673.52
2019-04-03T14:37:53.749Z,98673.59
2019-04-03T14:40:22.196Z,98675.25
2019-04-03T14:42:50.894Z,98664.09
2019-04-03T14:45:19.373Z,98658.59
2019-04-03T14:47:47.894Z,98658.36
2019-04-03T14:50:16.368Z,98656.09
2019-04-03T14:52:47.679Z,98652.61
2019-04-03T14:55:18.999Z,98660.77
2019-04-03T14:57:45.620Z,98655.44
2019-04-03T15:00:26.310Z,98657.98
2019-04-03T15:02:44.370Z,98654.16
2019-04-03T15:05:12.847Z,98647.52
2019-04-03T15:07:41.288Z,98653.28
2019-04-03T15:10:09.742Z,98647.42
2019-04-03T15:12:39.823Z,98644.95
2019-04-03T15:15:09.469Z,98647.00
2019-04-03T15:17:38.718Z,98638.17
2019-04-03T15:20:08.375Z,98629.30
2019-04-03T15:22:37.139Z,98646.50
2019-04-03T15:25:05.764Z,98638.63
2019-04-03T15:27:34.652Z,98638.81
2019-04-03T15:30:03.119Z,98632.62
2019-04-03T15:32:32.005Z,98630.98
2019-04-03T15:35:01.229Z,98621.95
2019-04-03T15:37:30.287Z,98626.24
2019-04-03T15:39:59.243Z,98617.18
2019-04-03T15:42:27.968Z,98619.61
2019-04-03T15:44:57.735Z,98622.86
2019-04-03T15:47:36.075Z,98619.77
2019-04-03T15:49:58.789Z,98615.00
2019-04-03T15:52:26.575Z,98618.25
2019-04-03T15:54:55.417Z,98617.84
2019-04-03T15:57:24.323Z,98620.94
2019-04-03T15:59:53.366Z,98616.99
2019-04-03T16:02:21.876Z,98618.27
2019-04-03T16:04:50.392Z,98617.00
2019-04-03T16:07:18.880Z,98624.50
2019-04-03T16:09:49.654Z,98622.95
2019-04-03T16:12:17.846Z,98626.05
2019-04-03T16:14:46.852Z,98618.41
2019-04-03T16:17:15.569Z,98620.52
2019-04-03T16:19:44.778Z,98620.81
2019-04-03T16:22:13.764Z,98621.92
2019-04-03T16:24:44.290Z,98617.00
2019-04-03T16:27:12.817Z,98617.27
2019-04-03T16:29:41.875Z,98608.67
2019-04-03T16:32:10.434Z,98612.48
2019-04-03T16:34:41.788Z,98613.72
2019-04-03T16:37:10.567Z,98618.39
2019-04-03T16:39:39.256Z,98607.94
2019-04-03T16:42:09.707Z,98611.88
2019-04-03T16:44:38.157Z,98603.15
2019-04-03T16:47:06.776Z,98606.09
2019-04-03T16:49:35.223Z,98604.69
2019-04-03T16:52:05.603Z,98599.59
2019-04-03T16:54:34.357Z,98594.50
2019-04-03T16:57:03.731Z,98595.77
2019-04-03T16:59:35.413Z,98595.34
2019-04-03T17:02:02.489Z,98597.56
2019-04-03T17:04:31.106Z,98593.45
2019-04-03T17:06:59.631Z,98598.26
2019-04-03T17:09:28.041Z,98595.98
2019-04-03T17:11:56.469Z,98596.25
2019-04-03T17:14:25.277Z,98586.78
2019-04-03T17:16:54.195Z,98597.07
2019-04-03T17:19:22.608Z,98596.47
2019-04-03T17:21:51.468Z,98588.86
2019-04-03T17:24:19.878Z,98598.98
2019-04-03T17:26:55.492Z,98592.20
2019-04-03T17:29:18.525Z,98596.86
2019-04-03T17:31:47.017Z,98596.30
2019-04-03T17:34:15.836Z,98589.35
2019-04-03T17:36:44.329Z,98598.64
2019-04-03T17:39:12.814Z,98591.85
2019-04-03T17:41:41.393Z,98592.02
2019-04-03T17:44:09.871Z,98599.45
2019-04-03T17:46:40.094Z,98589.86
2019-04-03T17:49:08.512Z,98596.33
2019-04-03T17:51:37.006Z,98600.13
2019-04-03T17:54:07.789Z,98596.69
2019-04-03T17:56:36.039Z,98596.11
2019-04-03T17:59:04.556Z,98594.55
2019-04-03T18:01:33.043Z,98602.72
2019-04-03T18:04:01.538Z,98595.80
2019-04-03T18:06:30.010Z,98588.89
2019-04-03T18:08:58.412Z,98596.19
2019-04-03T18:11:26.852Z,98594.62
2019-04-03T18:13:55.628Z,98597.43
2019-04-03T18:16:24.125Z,98594.17
2019-04-03T18:18:52.540Z,98603.16
2019-04-03T18:21:20.992Z,98597.11
2019-04-03T18:23:52.624Z,98601.73
2019-04-03T18:26:19.694Z,98601.03
2019-04-03T18:28:48.178Z,98606.50
2019-04-03T18:31:16.980Z,98602.27
2019-04-03T18:33:46.808Z,98605.93
2019-04-03T18:36:15.664Z,98605.20
2019-04-03T18:38:44.076Z,98604.49
2019-04-03T18:41:12.482Z,98608.13
2019-04-03T18:43:40.886Z,98602.07
2019-04-03T18:46:09.491Z,98603.06
2019-04-03T18:48:37.893Z,98599.65
2019-04-03T18:51:06.605Z,98594.55
2019-04-03T18:53:35.215Z,98603.44
2019-04-03T18:56:03.627Z,98603.56
2019-04-03T18:58:32.040Z,98609.16
2019-04-03T19:01:01.814Z,98602.25
2019-04-03T19:03:30.790Z,98608.45
2019-04-03T19:05:59.983Z,98605.91
2019-04-03T19:08:28.613Z,98602.66
2019-04-03T19:11:02.202Z,98602.66
2019-04-03T19:13:27.164Z,98600.94
2019-04-03T19:15:55.696Z,98603.77
2019-04-03T19:18:24.107Z,98601.22
2019-04-03T19:20:52.549Z,98602.05
2019-04-03T19:23:20.957Z,98590.52
2019-04-03T19:25:49.413Z,98596.69
2019-04-03T19:28:17.824Z,98590.52
2019-04-03T19:30:46.673Z,98590.52
2019-04-03T19:33:15.086Z,98586.86
2019-04-03T19:35:43.572Z,98585.17
2019-04-03T19:38:13.337Z,98586.98
2019-04-03T19:40:43.171Z,98588.80
2019-04-03T19:43:14.564Z,98587.11
2019-04-03T19:45:41.733Z,98585.41
2019-04-03T19:48:10.151Z,98581.05
2019-04-03T19:50:38.563Z,98574.97
2019-04-03T19:53:07.993Z,98582.99
2019-04-03T19:55:36.664Z,98587.61
2019-04-03T19:58:05.147Z,98575.19
2019-04-03T20:00:34.929Z,98582.50
2019-04-03T20:03:03.828Z,98570.13
2019-04-03T20:05:32.301Z,98575.59
2019-04-03T20:08:00.819Z,98573.05
2019-04-03T20:10:29.275Z,98566.96
2019-04-03T20:12:57.759Z,98567.95
2019-04-03T20:15:26.949Z,98562.59
2019-04-03T20:17:55.474Z,98569.91
2019-04-03T20:20:23.930Z,98566.50
2019-04-03T20:22:52.341Z,98569.17
2019-04-03T20:25:20.750Z,98571.14
2019-04-03T20:27:51.435Z,98566.75
2019-04-03T20:30:19.440Z,98571.39
2019-04-03T20:32:47.854Z,98570.53
2019-04-03T20:35:18.734Z,98573.33
2019-04-03T20:37:46.424Z,98574.31
2019-04-03T20:40:14.844Z,98569.95
2019-04-03T20:42:43.298Z,98569.22
2019-04-03T20:45:11.711Z,98566.54
2019-04-03T20:47:40.148Z,98575.55
2019-04-03T20:50:09.029Z,98572.16
2019-04-03T20:52:37.592Z,98581.13
2019-04-03T20:55:06.970Z,98577.75
2019-04-03T20:57:35.529Z,98573.23
2019-04-03T21:00:09.241Z,98577.02
2019-04-03T21:02:37.686Z,98573.39
2019-04-03T21:05:07.951Z,98574.34
2019-04-03T21:07:36.564Z,98572.66
2019-04-03T21:10:07.367Z,98576.43
2019-04-03T21:12:36.388Z,98565.74
2019-04-03T21:15:08.737Z,98579.23
2019-04-03T21:17:35.603Z,98571.20
2019-04-03T21:20:06.113Z,98570.50
2019-04-03T21:22:34.564Z,98570.63
2019-04-03T21:25:05.328Z,98571.45
2019-04-03T21:27:33.359Z,98576.92
2019-04-03T21:30:01.723Z,98577.91
2019-04-03T21:32:30.127Z,98572.55
2019-04-03T21:34:58.537Z,98575.35
2019-04-03T21:37:26.940Z,98569.30
2019-04-03T21:39:55.381Z,98575.63
2019-04-03T21:42:24.980Z,98573.91
2019-04-03T21:44:53.931Z,98561.52
2019-04-03T21:47:22.346Z,98572.21
2019-04-03T21:49:50.751Z,98560.82
2019-04-03T21:52:19.159Z,98563.49
2019-04-03T21:54:47.567Z,98570.64
2019-04-03T21:57:15.995Z,98567.11
2019-04-03T21:59:44.403Z,98575.25
2019-04-03T22:02:14.056Z,98569.91
2019-04-03T22:04:43.023Z,98572.73
2019-04-03T22:07:11.464Z,98573.68
2019-04-03T22:09:39.867Z,98573.68
2019-04-03T22:12:08.495Z,98567.63
2019-04-03T22:14:36.899Z,98570.30
2019-04-03T22:17:05.399Z,98570.42
2019-04-03T22:19:33.881Z,98557.19
2019-04-03T22:22:02.953Z,98556.33
2019-04-03T22:24:32.033Z,98561.67
2019-04-03T22:27:00.468Z,98561.94
2019-04-03T22:29:28.884Z,98558.41
2019-04-03T22:31:57.410Z,98554.88
2019-04-03T22:34:25.876Z,98554.05
2019-04-03T22:36:54.330Z,98550.64
2019-04-03T22:39:22.751Z,98560.49
2019-04-03T22:41:51.293Z,98558.77
2019-04-03T22:44:19.717Z,98558.77
2019-04-03T22:46:48.124Z,98552.59
2019-04-03T22:49:16.530Z,98550.91
2019-04-03T22:51:44.972Z,98558.16
2019-04-03T22:54:13.402Z,98558.16
2019-04-03T22:56:41.812Z,98563.49
2019-04-03T22:59:10.263Z,98559.13
2019-04-03T23:01:38.696Z,98554.77
2019-04-03T23:04:07.081Z,98555.72
2019-04-03T23:06:35.596Z,98546.88
2019-04-03T23:09:05.706Z,98550.50
2019-04-03T23:11:34.321Z,98547.83
2019-04-03T23:14:06.781Z,98550.62
2019-04-03T23:16:35.074Z,98546.25
2019-04-03T23:19:03.554Z,98543.59
2019-04-03T23:21:32.105Z,98548.22
2019-04-03T23:24:00.534Z,98549.16
2019-04-03T23:26:31.644Z,98539.34
2019-04-03T23:28:59.432Z,98538.63
2019-04-03T23:31:27.893Z,98534.12
2019-04-03T23:33:56.344Z,98529.02
2019-04-03T23:36:24.898Z,98521.02
2019-04-03T23:38:56.375Z,98524.42
2019-04-03T23:41:23.634Z,98522.85
2019-04-03T23:43:52.141Z,98515.67
2019-04-03T23:46:20.622Z,98521.99
2019-04-03T23:48:49.543Z,98516.66
2019-04-03T23:51:23.446Z,98514.10
2019-04-03T23:53:48.369Z,98502.59
2019-04-03T23:56:16.845Z,98507.07
2019-04-03T23:58:45.357Z,98500.88
